sensor_id;sensor_type;location;lat;lon;timestamp;temperature;humidity
37886;DHT22;23726;52.520;13.434;2023-02-11T00:03:47;21.10;40.80
37886;DHT22;23726;52.520;13.434;2023-02-11T00:06:14;21.10;40.70
37886;DHT22;23726;52.520;13.434;2023-02-11T00:08:40;21.10;40.80
37886;DHT22;23726;52.520;13.434;2023-02-11T00:11:09;21.10;40.90
37886;DHT22;23726;52.520;13.434;2023-02-11T00:13:36;21.10;40.80
37886;DHT22;23726;52.520;13.434;2023-02-11T00:16:08;21.10;40.90
37886;DHT22;23726;52.520;13.434;2023-02-11T00:18:34;21.10;40.90
37886;DHT22;23726;52.520;13.434;2023-02-11T00:21:09;21.10;40.90
37886;DHT22;23726;52.520;13.434;2023-02-11T00:23:37;21.10;40.80
37886;DHT22;23726;52.520;13.434;2023-02-11T00:26:09;21.10;40.90
37886;DHT22;23726;52.520;13.434;2023-02-11T00:28:36;21.10;40.90
37886;DHT22;23726;52.520;13.434;2023-02-11T00:31:02;21.10;40.90
37886;DHT22;23726;52.520;13.434;2023-02-11T00:33:29;21.10;40.90
37886;DHT22;23726;52.520;13.434;2023-02-11T00:35:56;21.20;40.90
37886;DHT22;23726;52.520;13.434;2023-02-11T00:38:23;21.10;40.90
37886;DHT22;23726;52.520;13.434;2023-02-11T00:40:49;21.10;40.90
37886;DHT22;23726;52.520;13.434;2023-02-11T00:43:14;21.10;40.90
37886;DHT22;23726;52.520;13.434;2023-02-11T00:45:40;21.20;41.00
37886;DHT22;23726;52.520;13.434;2023-02-11T00:48:05;21.20;41.00
37886;DHT22;23726;52.520;13.434;2023-02-11T00:50:31;21.20;41.00
37886;DHT22;23726;52.520;13.434;2023-02-11T00:52:58;21.20;41.00
37886;DHT22;23726;52.520;13.434;2023-02-11T00:55:24;21.20;41.10
37886;DHT22;23726;52.520;13.434;2023-02-11T00:57:49;21.10;40.90
37886;DHT22;23726;52.520;13.434;2023-02-11T01:00:17;21.20;41.00
37886;DHT22;23726;52.520;13.434;2023-02-11T01:02:45;21.20;41.20
37886;DHT22;23726;52.520;13.434;2023-02-11T01:05:10;21.20;41.10
37886;DHT22;23726;52.520;13.434;2023-02-11T01:07:37;21.20;41.10
37886;DHT22;23726;52.520;13.434;2023-02-11T01:10:04;21.20;41.10
37886;DHT22;23726;52.520;13.434;2023-02-11T01:12:30;21.20;41.10
37886;DHT22;23726;52.520;13.434;2023-02-11T01:14:56;21.20;41.10
37886;DHT22;23726;52.520;13.434;2023-02-11T01:17:23;21.20;41.30
37886;DHT22;23726;52.520;13.434;2023-02-11T01:19:49;21.20;41.10
37886;DHT22;23726;52.520;13.434;2023-02-11T01:22:15;21.20;41.20
37886;DHT22;23726;52.520;13.434;2023-02-11T01:24:41;21.10;41.10
37886;DHT22;23726;52.520;13.434;2023-02-11T01:27:06;21.20;41.30
37886;DHT22;23726;52.520;13.434;2023-02-11T01:29:32;21.20;41.20
37886;DHT22;23726;52.520;13.434;2023-02-11T01:31:59;21.10;41.20
37886;DHT22;23726;52.520;13.434;2023-02-11T01:34:25;21.20;41.20
37886;DHT22;23726;52.520;13.434;2023-02-11T01:36:58;21.20;41.60
37886;DHT22;23726;52.520;13.434;2023-02-11T01:39:27;21.20;41.30
37886;DHT22;23726;52.520;13.434;2023-02-11T01:41:53;21.10;41.20
37886;DHT22;23726;52.520;13.434;2023-02-11T01:44:29;21.20;41.20
37886;DHT22;23726;52.520;13.434;2023-02-11T01:46:54;21.20;41.20
37886;DHT22;23726;52.520;13.434;2023-02-11T01:49:27;21.20;41.20
37886;DHT22;23726;52.520;13.434;2023-02-11T01:52:01;21.20;41.20
37886;DHT22;23726;52.520;13.434;2023-02-11T01:54:34;21.20;41.10
37886;DHT22;23726;52.520;13.434;2023-02-11T01:57:20;21.20;41.10
37886;DHT22;23726;52.520;13.434;2023-02-11T02:00:13;21.20;41.30
37886;DHT22;23726;52.520;13.434;2023-02-11T02:08:43;21.10;41.30
37886;DHT22;23726;52.520;13.434;2023-02-11T02:11:13;21.10;41.50
37886;DHT22;23726;52.520;13.434;2023-02-11T02:13:38;21.20;41.50
37886;DHT22;23726;52.520;13.434;2023-02-11T02:16:07;21.10;41.40
37886;DHT22;23726;52.520;13.434;2023-02-11T02:19:11;21.10;41.40
37886;DHT22;23726;52.520;13.434;2023-02-11T02:24:37;21.10;41.60
37886;DHT22;23726;52.520;13.434;2023-02-11T02:33:05;21.20;41.50
37886;DHT22;23726;52.520;13.434;2023-02-11T02:36:06;21.20;41.50
37886;DHT22;23726;52.520;13.434;2023-02-11T02:39:19;21.10;41.40
37886;DHT22;23726;52.520;13.434;2023-02-11T02:41:48;21.10;41.60
37886;DHT22;23726;52.520;13.434;2023-02-11T02:44:21;21.10;41.60
37886;DHT22;23726;52.520;13.434;2023-02-11T02:46:49;21.10;41.80
37886;DHT22;23726;52.520;13.434;2023-02-11T02:49:16;21.10;41.60
37886;DHT22;23726;52.520;13.434;2023-02-11T03:08:31;21.10;41.60
37886;DHT22;23726;52.520;13.434;2023-02-11T03:11:01;21.10;41.70
37886;DHT22;23726;52.520;13.434;2023-02-11T03:13:32;21.10;41.70
37886;DHT22;23726;52.520;13.434;2023-02-11T03:16:03;21.20;41.90
37886;DHT22;23726;52.520;13.434;2023-02-11T03:18:32;21.20;41.80
37886;DHT22;23726;52.520;13.434;2023-02-11T03:21:04;21.20;41.70
37886;DHT22;23726;52.520;13.434;2023-02-11T03:23:53;21.20;41.70
37886;DHT22;23726;52.520;13.434;2023-02-11T03:26:27;21.20;41.70
37886;DHT22;23726;52.520;13.434;2023-02-11T03:34:48;21.20;41.60
37886;DHT22;23726;52.520;13.434;2023-02-11T03:37:42;21.20;41.80
37886;DHT22;23726;52.520;13.434;2023-02-11T03:40:14;21.20;41.70
37886;DHT22;23726;52.520;13.434;2023-02-11T03:42:57;21.20;42.00
37886;DHT22;23726;52.520;13.434;2023-02-11T03:45:26;21.20;41.90
37886;DHT22;23726;52.520;13.434;2023-02-11T03:48:14;21.20;41.70
37886;DHT22;23726;52.520;13.434;2023-02-11T03:50:44;21.20;41.90
37886;DHT22;23726;52.520;13.434;2023-02-11T03:53:11;21.20;41.70
37886;DHT22;23726;52.520;13.434;2023-02-11T03:55:39;21.20;41.80
37886;DHT22;23726;52.520;13.434;2023-02-11T03:58:07;21.20;41.80
37886;DHT22;23726;52.520;13.434;2023-02-11T04:00:35;21.20;41.80
37886;DHT22;23726;52.520;13.434;2023-02-11T04:03:05;21.20;41.70
37886;DHT22;23726;52.520;13.434;2023-02-11T04:05:34;21.20;41.60
37886;DHT22;23726;52.520;13.434;2023-02-11T04:08:02;21.20;41.70
37886;DHT22;23726;52.520;13.434;2023-02-11T04:10:28;21.20;41.70
37886;DHT22;23726;52.520;13.434;2023-02-11T04:12:53;21.20;41.50
37886;DHT22;23726;52.520;13.434;2023-02-11T04:15:19;21.20;41.80
37886;DHT22;23726;52.520;13.434;2023-02-11T04:17:45;21.20;41.60
37886;DHT22;23726;52.520;13.434;2023-02-11T04:20:14;21.20;41.70
37886;DHT22;23726;52.520;13.434;2023-02-11T04:22:46;21.20;41.70
37886;DHT22;23726;52.520;13.434;2023-02-11T04:25:13;21.20;41.80
37886;DHT22;23726;52.520;13.434;2023-02-11T04:27:38;21.20;41.70
37886;DHT22;23726;52.520;13.434;2023-02-11T04:30:05;21.20;41.80
37886;DHT22;23726;52.520;13.434;2023-02-11T04:32:34;21.20;41.60
37886;DHT22;23726;52.520;13.434;2023-02-11T04:34:59;21.20;41.60
37886;DHT22;23726;52.520;13.434;2023-02-11T04:37:26;21.20;41.80
37886;DHT22;23726;52.520;13.434;2023-02-11T04:39:52;21.20;41.70
37886;DHT22;23726;52.520;13.434;2023-02-11T04:42:18;21.20;41.80
37886;DHT22;23726;52.520;13.434;2023-02-11T04:44:44;21.20;41.50
37886;DHT22;23726;52.520;13.434;2023-02-11T04:47:11;21.20;42.00
37886;DHT22;23726;52.520;13.434;2023-02-11T04:49:39;21.20;41.80
37886;DHT22;23726;52.520;13.434;2023-02-11T04:52:06;21.20;41.70
37886;DHT22;23726;52.520;13.434;2023-02-11T04:54:33;21.20;41.70
37886;DHT22;23726;52.520;13.434;2023-02-11T04:56:59;21.20;42.30
37886;DHT22;23726;52.520;13.434;2023-02-11T04:59:28;21.20;41.70
37886;DHT22;23726;52.520;13.434;2023-02-11T05:01:53;21.20;41.60
37886;DHT22;23726;52.520;13.434;2023-02-11T05:04:19;21.20;41.80
37886;DHT22;23726;52.520;13.434;2023-02-11T05:06:48;21.20;41.70
37886;DHT22;23726;52.520;13.434;2023-02-11T05:09:13;21.20;41.80
37886;DHT22;23726;52.520;13.434;2023-02-11T05:11:41;21.20;41.80
37886;DHT22;23726;52.520;13.434;2023-02-11T05:14:07;21.20;41.70
37886;DHT22;23726;52.520;13.434;2023-02-11T05:16:33;21.20;41.80
37886;DHT22;23726;52.520;13.434;2023-02-11T05:18:59;21.20;41.90
37886;DHT22;23726;52.520;13.434;2023-02-11T05:21:25;21.20;41.80
37886;DHT22;23726;52.520;13.434;2023-02-11T05:23:52;21.20;42.00
37886;DHT22;23726;52.520;13.434;2023-02-11T05:26:19;21.20;42.40
37886;DHT22;23726;52.520;13.434;2023-02-11T05:28:45;21.20;42.50
37886;DHT22;23726;52.520;13.434;2023-02-11T05:31:11;21.20;42.00
37886;DHT22;23726;52.520;13.434;2023-02-11T05:33:39;21.20;42.10
37886;DHT22;23726;52.520;13.434;2023-02-11T05:36:07;21.20;42.00
37886;DHT22;23726;52.520;13.434;2023-02-11T05:38:33;21.20;42.00
37886;DHT22;23726;52.520;13.434;2023-02-11T05:41:00;21.20;42.00
37886;DHT22;23726;52.520;13.434;2023-02-11T05:43:26;21.20;42.10
37886;DHT22;23726;52.520;13.434;2023-02-11T05:45:51;21.20;42.10
37886;DHT22;23726;52.520;13.434;2023-02-11T05:48:17;21.20;42.10
37886;DHT22;23726;52.520;13.434;2023-02-11T05:50:42;21.20;42.10
37886;DHT22;23726;52.520;13.434;2023-02-11T05:53:10;21.20;42.10
37886;DHT22;23726;52.520;13.434;2023-02-11T05:55:40;21.20;42.10
37886;DHT22;23726;52.520;13.434;2023-02-11T05:58:06;21.20;41.90
37886;DHT22;23726;52.520;13.434;2023-02-11T06:00:34;21.20;42.10
37886;DHT22;23726;52.520;13.434;2023-02-11T06:03:00;21.20;42.10
37886;DHT22;23726;52.520;13.434;2023-02-11T06:05:29;21.20;42.20
37886;DHT22;23726;52.520;13.434;2023-02-11T06:07:54;21.20;42.10
37886;DHT22;23726;52.520;13.434;2023-02-11T06:10:21;21.20;42.10
37886;DHT22;23726;52.520;13.434;2023-02-11T06:12:47;21.20;42.20
37886;DHT22;23726;52.520;13.434;2023-02-11T06:15:13;21.30;42.30
37886;DHT22;23726;52.520;13.434;2023-02-11T06:17:38;21.20;42.20
37886;DHT22;23726;52.520;13.434;2023-02-11T06:20:06;21.20;42.30
37886;DHT22;23726;52.520;13.434;2023-02-11T06:22:33;21.20;42.20
37886;DHT22;23726;52.520;13.434;2023-02-11T06:24:58;21.20;42.20
37886;DHT22;23726;52.520;13.434;2023-02-11T06:27:24;21.20;42.30
37886;DHT22;23726;52.520;13.434;2023-02-11T06:29:50;21.20;42.40
37886;DHT22;23726;52.520;13.434;2023-02-11T06:32:22;21.20;42.30
37886;DHT22;23726;52.520;13.434;2023-02-11T06:34:48;21.20;42.30
37886;DHT22;23726;52.520;13.434;2023-02-11T06:37:14;21.20;42.50
37886;DHT22;23726;52.520;13.434;2023-02-11T06:39:40;21.20;42.40
37886;DHT22;23726;52.520;13.434;2023-02-11T06:42:08;21.20;42.50
37886;DHT22;23726;52.520;13.434;2023-02-11T06:44:34;21.20;42.30
37886;DHT22;23726;52.520;13.434;2023-02-11T06:47:00;21.20;42.40
37886;DHT22;23726;52.520;13.434;2023-02-11T06:49:27;21.20;42.50
37886;DHT22;23726;52.520;13.434;2023-02-11T06:51:53;21.20;42.40
37886;DHT22;23726;52.520;13.434;2023-02-11T06:54:18;21.20;42.40
37886;DHT22;23726;52.520;13.434;2023-02-11T06:56:45;21.20;42.40
37886;DHT22;23726;52.520;13.434;2023-02-11T06:59:18;21.20;42.40
37886;DHT22;23726;52.520;13.434;2023-02-11T07:01:45;21.20;42.40
37886;DHT22;23726;52.520;13.434;2023-02-11T07:04:11;21.30;42.50
37886;DHT22;23726;52.520;13.434;2023-02-11T07:06:38;21.20;42.40
37886;DHT22;23726;52.520;13.434;2023-02-11T07:09:06;21.20;42.40
37886;DHT22;23726;52.520;13.434;2023-02-11T07:11:34;21.20;42.20
37886;DHT22;23726;52.520;13.434;2023-02-11T07:14:03;21.20;42.50
37886;DHT22;23726;52.520;13.434;2023-02-11T07:16:30;21.20;42.50
37886;DHT22;23726;52.520;13.434;2023-02-11T07:18:57;21.20;42.50
37886;DHT22;23726;52.520;13.434;2023-02-11T07:21:23;21.20;42.50
37886;DHT22;23726;52.520;13.434;2023-02-11T07:23:50;21.20;42.50
37886;DHT22;23726;52.520;13.434;2023-02-11T07:26:19;21.20;42.50
37886;DHT22;23726;52.520;13.434;2023-02-11T07:28:47;21.20;42.40
37886;DHT22;23726;52.520;13.434;2023-02-11T07:31:16;21.20;42.10
37886;DHT22;23726;52.520;13.434;2023-02-11T07:33:43;21.20;42.50
37886;DHT22;23726;52.520;13.434;2023-02-11T07:36:13;21.20;42.50
37886;DHT22;23726;52.520;13.434;2023-02-11T07:38:39;21.20;42.70
37886;DHT22;23726;52.520;13.434;2023-02-11T07:41:10;21.20;42.80
37886;DHT22;23726;52.520;13.434;2023-02-11T07:43:37;21.20;42.80
37886;DHT22;23726;52.520;13.434;2023-02-11T07:46:06;21.20;42.50
37886;DHT22;23726;52.520;13.434;2023-02-11T07:48:32;21.20;42.50
37886;DHT22;23726;52.520;13.434;2023-02-11T07:51:16;21.20;42.40
37886;DHT22;23726;52.520;13.434;2023-02-11T07:53:43;21.20;42.60
37886;DHT22;23726;52.520;13.434;2023-02-11T07:56:10;21.20;42.60
37886;DHT22;23726;52.520;13.434;2023-02-11T07:58:36;21.20;42.70
37886;DHT22;23726;52.520;13.434;2023-02-11T08:01:06;21.20;42.70
37886;DHT22;23726;52.520;13.434;2023-02-11T08:03:35;21.30;42.50
37886;DHT22;23726;52.520;13.434;2023-02-11T08:06:10;21.30;42.50
37886;DHT22;23726;52.520;13.434;2023-02-11T08:08:37;21.30;42.70
37886;DHT22;23726;52.520;13.434;2023-02-11T08:11:12;21.30;42.70
37886;DHT22;23726;52.520;13.434;2023-02-11T08:13:39;21.30;42.50
37886;DHT22;23726;52.520;13.434;2023-02-11T08:16:27;21.30;43.20
37886;DHT22;23726;52.520;13.434;2023-02-11T08:18:57;21.30;42.50
37886;DHT22;23726;52.520;13.434;2023-02-11T08:21:23;21.30;42.60
37886;DHT22;23726;52.520;13.434;2023-02-11T08:23:50;21.30;42.70
37886;DHT22;23726;52.520;13.434;2023-02-11T08:26:19;21.30;42.60
37886;DHT22;23726;52.520;13.434;2023-02-11T08:28:46;21.30;42.70
37886;DHT22;23726;52.520;13.434;2023-02-11T08:31:48;21.30;42.70
37886;DHT22;23726;52.520;13.434;2023-02-11T08:34:14;21.20;42.90
37886;DHT22;23726;52.520;13.434;2023-02-11T08:36:56;21.30;42.80
37886;DHT22;23726;52.520;13.434;2023-02-11T08:39:23;21.30;42.80
37886;DHT22;23726;52.520;13.434;2023-02-11T08:42:12;21.30;42.80
37886;DHT22;23726;52.520;13.434;2023-02-11T08:44:40;21.30;42.60
37886;DHT22;23726;52.520;13.434;2023-02-11T08:47:05;21.30;42.60
37886;DHT22;23726;52.520;13.434;2023-02-11T08:49:31;21.20;42.80
37886;DHT22;23726;52.520;13.434;2023-02-11T08:51:58;21.20;42.80
37886;DHT22;23726;52.520;13.434;2023-02-11T08:54:30;21.20;42.80
37886;DHT22;23726;52.520;13.434;2023-02-11T08:56:57;21.30;42.90
37886;DHT22;23726;52.520;13.434;2023-02-11T08:59:25;21.30;42.80
37886;DHT22;23726;52.520;13.434;2023-02-11T09:01:53;21.20;42.80
37886;DHT22;23726;52.520;13.434;2023-02-11T09:07:44;21.30;42.90
37886;DHT22;23726;52.520;13.434;2023-02-11T09:10:10;21.20;42.90
37886;DHT22;23726;52.520;13.434;2023-02-11T09:12:35;21.30;42.90
37886;DHT22;23726;52.520;13.434;2023-02-11T09:15:02;21.20;42.40
37886;DHT22;23726;52.520;13.434;2023-02-11T09:17:31;21.30;42.40
37886;DHT22;23726;52.520;13.434;2023-02-11T09:19:58;21.30;42.30
37886;DHT22;23726;52.520;13.434;2023-02-11T09:22:28;21.20;42.00
37886;DHT22;23726;52.520;13.434;2023-02-11T09:24:53;21.20;41.80
37886;DHT22;23726;52.520;13.434;2023-02-11T09:27:21;21.20;41.70
37886;DHT22;23726;52.520;13.434;2023-02-11T09:29:47;21.20;41.60
37886;DHT22;23726;52.520;13.434;2023-02-11T09:32:14;21.20;41.80
37886;DHT22;23726;52.520;13.434;2023-02-11T09:34:41;21.20;41.70
37886;DHT22;23726;52.520;13.434;2023-02-11T09:37:06;21.30;41.60
37886;DHT22;23726;52.520;13.434;2023-02-11T09:39:33;21.20;41.50
37886;DHT22;23726;52.520;13.434;2023-02-11T09:44:44;21.20;41.50
37886;DHT22;23726;52.520;13.434;2023-02-11T09:47:33;21.20;41.40
37886;DHT22;23726;52.520;13.434;2023-02-11T09:50:13;21.20;41.50
37886;DHT22;23726;52.520;13.434;2023-02-11T09:52:55;21.20;41.50
37886;DHT22;23726;52.520;13.434;2023-02-11T09:55:37;21.20;42.10
37886;DHT22;23726;52.520;13.434;2023-02-11T09:58:35;21.20;41.90
37886;DHT22;23726;52.520;13.434;2023-02-11T10:06:53;21.20;42.10
37886;DHT22;23726;52.520;13.434;2023-02-11T10:12:44;21.20;42.30
37886;DHT22;23726;52.520;13.434;2023-02-11T10:21:11;21.20;42.30
37886;DHT22;23726;52.520;13.434;2023-02-11T10:23:44;21.20;42.30
37886;DHT22;23726;52.520;13.434;2023-02-11T10:26:17;21.20;42.30
37886;DHT22;23726;52.520;13.434;2023-02-11T10:28:45;21.20;42.30
37886;DHT22;23726;52.520;13.434;2023-02-11T10:31:34;21.20;42.10
37886;DHT22;23726;52.520;13.434;2023-02-11T10:34:07;21.20;42.10
37886;DHT22;23726;52.520;13.434;2023-02-11T10:36:37;21.20;42.20
37886;DHT22;23726;52.520;13.434;2023-02-11T10:39:26;21.20;42.20
37886;DHT22;23726;52.520;13.434;2023-02-11T10:42:04;21.20;42.20
37886;DHT22;23726;52.520;13.434;2023-02-11T10:45:03;21.20;42.20
37886;DHT22;23726;52.520;13.434;2023-02-11T10:47:35;21.30;42.10
37886;DHT22;23726;52.520;13.434;2023-02-11T10:50:29;21.30;42.30
37886;DHT22;23726;52.520;13.434;2023-02-11T10:53:17;21.20;42.20
37886;DHT22;23726;52.520;13.434;2023-02-11T10:55:51;21.20;42.20
37886;DHT22;23726;52.520;13.434;2023-02-11T10:58:33;21.20;42.10
37886;DHT22;23726;52.520;13.434;2023-02-11T11:01:01;21.20;42.20
37886;DHT22;23726;52.520;13.434;2023-02-11T11:03:47;21.30;42.70
37886;DHT22;23726;52.520;13.434;2023-02-11T11:06:14;21.30;42.20
37886;DHT22;23726;52.520;13.434;2023-02-11T11:08:46;21.20;42.10
37886;DHT22;23726;52.520;13.434;2023-02-11T11:11:17;21.30;42.10
37886;DHT22;23726;52.520;13.434;2023-02-11T11:13:56;21.30;42.00
37886;DHT22;23726;52.520;13.434;2023-02-11T11:16:36;21.30;41.90
37886;DHT22;23726;52.520;13.434;2023-02-11T11:21:51;21.30;41.90
37886;DHT22;23726;52.520;13.434;2023-02-11T11:24:28;21.20;42.00
37886;DHT22;23726;52.520;13.434;2023-02-11T11:26:56;21.30;42.00
37886;DHT22;23726;52.520;13.434;2023-02-11T11:29:41;21.30;42.00
37886;DHT22;23726;52.520;13.434;2023-02-11T11:32:23;21.30;41.90
37886;DHT22;23726;52.520;13.434;2023-02-11T11:34:54;21.30;41.90
37886;DHT22;23726;52.520;13.434;2023-02-11T11:37:31;21.30;41.90
37886;DHT22;23726;52.520;13.434;2023-02-11T11:40:08;21.30;41.80
37886;DHT22;23726;52.520;13.434;2023-02-11T11:42:36;21.20;41.70
37886;DHT22;23726;52.520;13.434;2023-02-11T11:45:24;21.30;41.80
37886;DHT22;23726;52.520;13.434;2023-02-11T11:48:17;21.30;41.90
37886;DHT22;23726;52.520;13.434;2023-02-11T11:50:56;21.20;41.80
37886;DHT22;23726;52.520;13.434;2023-02-11T11:58:31;21.30;42.40
37886;DHT22;23726;52.520;13.434;2023-02-11T12:02:04;21.30;43.10
37886;DHT22;23726;52.520;13.434;2023-02-11T12:15:14;21.40;42.90
37886;DHT22;23726;52.520;13.434;2023-02-11T12:21:05;21.40;43.00
37886;DHT22;23726;52.520;13.434;2023-02-11T12:23:47;21.40;43.10
37886;DHT22;23726;52.520;13.434;2023-02-11T12:26:22;21.40;43.00
37886;DHT22;23726;52.520;13.434;2023-02-11T12:29:07;21.40;42.80
37886;DHT22;23726;52.520;13.434;2023-02-11T12:46:17;21.50;43.00
37886;DHT22;23726;52.520;13.434;2023-02-11T12:54:28;21.40;42.90
37886;DHT22;23726;52.520;13.434;2023-02-11T12:57:05;21.50;42.90
37886;DHT22;23726;52.520;13.434;2023-02-11T13:00:17;21.50;43.00
37886;DHT22;23726;52.520;13.434;2023-02-11T13:02:59;21.50;42.90
37886;DHT22;23726;52.520;13.434;2023-02-11T13:05:50;21.40;42.70
37886;DHT22;23726;52.520;13.434;2023-02-11T13:08:32;21.40;42.60
37886;DHT22;23726;52.520;13.434;2023-02-11T13:11:56;21.40;42.30
37886;DHT22;23726;52.520;13.434;2023-02-11T13:14:03;21.40;42.20
37886;DHT22;23726;52.520;13.434;2023-02-11T13:16:46;21.30;42.20
37886;DHT22;23726;52.520;13.434;2023-02-11T14:49:04;21.30;42.20
37886;DHT22;23726;52.520;13.434;2023-02-11T14:51:35;21.30;42.20
37886;DHT22;23726;52.520;13.434;2023-02-11T14:54:22;21.30;42.20
37886;DHT22;23726;52.520;13.434;2023-02-11T14:57:10;21.30;42.20
37886;DHT22;23726;52.520;13.434;2023-02-11T14:59:37;21.30;42.30
37886;DHT22;23726;52.520;13.434;2023-02-11T15:02:19;21.30;42.40
37886;DHT22;23726;52.520;13.434;2023-02-11T15:04:45;21.30;42.30
37886;DHT22;23726;52.520;13.434;2023-02-11T15:07:12;21.30;42.40
37886;DHT22;23726;52.520;13.434;2023-02-11T15:12:18;21.30;42.20
37886;DHT22;23726;52.520;13.434;2023-02-11T15:14:50;21.40;42.20
37886;DHT22;23726;52.520;13.434;2023-02-11T15:17:20;21.30;42.10
37886;DHT22;23726;52.520;13.434;2023-02-11T15:19:49;21.30;42.20
37886;DHT22;23726;52.520;13.434;2023-02-11T15:22:19;21.40;42.20
37886;DHT22;23726;52.520;13.434;2023-02-11T15:27:42;21.40;42.30
37886;DHT22;23726;52.520;13.434;2023-02-11T15:30:27;21.40;42.30
37886;DHT22;23726;52.520;13.434;2023-02-11T15:33:01;21.40;42.30
37886;DHT22;23726;52.520;13.434;2023-02-11T15:35:38;21.40;42.60
37886;DHT22;23726;52.520;13.434;2023-02-11T15:38:06;21.40;42.60
37886;DHT22;23726;52.520;13.434;2023-02-11T15:40:35;21.40;42.60
37886;DHT22;23726;52.520;13.434;2023-02-11T15:43:07;21.40;42.50
37886;DHT22;23726;52.520;13.434;2023-02-11T15:45:41;21.40;42.60
37886;DHT22;23726;52.520;13.434;2023-02-11T15:51:33;21.40;42.80
37886;DHT22;23726;52.520;13.434;2023-02-11T15:54:17;21.40;42.50
37886;DHT22;23726;52.520;13.434;2023-02-11T15:56:52;21.40;42.50
37886;DHT22;23726;52.520;13.434;2023-02-11T15:59:27;21.40;42.50
37886;DHT22;23726;52.520;13.434;2023-02-11T16:02:37;21.40;42.20
37886;DHT22;23726;52.520;13.434;2023-02-11T16:05:02;21.40;42.40
37886;DHT22;23726;52.520;13.434;2023-02-11T16:07:49;21.40;42.40
37886;DHT22;23726;52.520;13.434;2023-02-11T16:10:30;21.40;42.80
37886;DHT22;23726;52.520;13.434;2023-02-11T16:15:56;21.40;42.40
37886;DHT22;23726;52.520;13.434;2023-02-11T16:18:32;21.40;42.50
37886;DHT22;23726;52.520;13.434;2023-02-11T16:20:59;21.40;42.50
37886;DHT22;23726;52.520;13.434;2023-02-11T16:23:32;21.40;42.40
37886;DHT22;23726;52.520;13.434;2023-02-11T16:26:04;21.40;42.50
37886;DHT22;23726;52.520;13.434;2023-02-11T16:28:33;21.40;42.30
37886;DHT22;23726;52.520;13.434;2023-02-11T16:31:00;21.40;42.20
37886;DHT22;23726;52.520;13.434;2023-02-11T16:33:27;21.40;42.20
37886;DHT22;23726;52.520;13.434;2023-02-11T16:35:53;21.40;42.20
37886;DHT22;23726;52.520;13.434;2023-02-11T16:38:20;21.40;42.20
37886;DHT22;23726;52.520;13.434;2023-02-11T16:40:46;21.40;42.20
37886;DHT22;23726;52.520;13.434;2023-02-11T16:43:17;21.40;42.20
37886;DHT22;23726;52.520;13.434;2023-02-11T16:45:49;21.40;42.20
37886;DHT22;23726;52.520;13.434;2023-02-11T16:48:19;21.40;42.20
37886;DHT22;23726;52.520;13.434;2023-02-11T16:54:21;21.50;42.30
37886;DHT22;23726;52.520;13.434;2023-02-11T16:56:48;21.50;42.40
37886;DHT22;23726;52.520;13.434;2023-02-11T16:59:14;21.40;42.40
37886;DHT22;23726;52.520;13.434;2023-02-11T17:01:41;21.50;42.40
37886;DHT22;23726;52.520;13.434;2023-02-11T17:04:20;21.50;42.30
37886;DHT22;23726;52.520;13.434;2023-02-11T17:06:46;21.50;42.40
37886;DHT22;23726;52.520;13.434;2023-02-11T17:09:29;21.50;42.50
37886;DHT22;23726;52.520;13.434;2023-02-11T17:11:55;21.50;42.50
37886;DHT22;23726;52.520;13.434;2023-02-11T17:14:21;21.50;42.50
37886;DHT22;23726;52.520;13.434;2023-02-11T17:16:49;21.50;42.40
37886;DHT22;23726;52.520;13.434;2023-02-11T17:19:16;21.50;42.40
37886;DHT22;23726;52.520;13.434;2023-02-11T17:21:47;21.60;42.60
37886;DHT22;23726;52.520;13.434;2023-02-11T17:24:14;21.60;42.50
37886;DHT22;23726;52.520;13.434;2023-02-11T17:26:42;21.50;42.60
37886;DHT22;23726;52.520;13.434;2023-02-11T17:29:11;21.50;42.50
37886;DHT22;23726;52.520;13.434;2023-02-11T17:31:38;21.50;42.50
37886;DHT22;23726;52.520;13.434;2023-02-11T17:34:04;21.50;42.50
37886;DHT22;23726;52.520;13.434;2023-02-11T17:36:30;21.50;42.50
37886;DHT22;23726;52.520;13.434;2023-02-11T17:38:58;21.50;42.40
37886;DHT22;23726;52.520;13.434;2023-02-11T17:41:24;21.50;42.40
37886;DHT22;23726;52.520;13.434;2023-02-11T17:43:50;21.50;42.40
37886;DHT22;23726;52.520;13.434;2023-02-11T17:46:17;21.50;42.40
37886;DHT22;23726;52.520;13.434;2023-02-11T17:55:11;21.50;42.40
37886;DHT22;23726;52.520;13.434;2023-02-11T17:57:37;21.50;42.40
37886;DHT22;23726;52.520;13.434;2023-02-11T18:00:06;21.50;42.40
37886;DHT22;23726;52.520;13.434;2023-02-11T18:02:32;21.50;42.40
37886;DHT22;23726;52.520;13.434;2023-02-11T18:08:12;21.50;42.30
37886;DHT22;23726;52.520;13.434;2023-02-11T18:10:40;21.50;42.50
37886;DHT22;23726;52.520;13.434;2023-02-11T18:13:07;21.50;42.40
37886;DHT22;23726;52.520;13.434;2023-02-11T18:15:33;21.50;42.40
37886;DHT22;23726;52.520;13.434;2023-02-11T18:17:59;21.50;42.40
37886;DHT22;23726;52.520;13.434;2023-02-11T18:20:29;21.50;42.40
37886;DHT22;23726;52.520;13.434;2023-02-11T18:22:54;21.50;42.40
37886;DHT22;23726;52.520;13.434;2023-02-11T18:25:20;21.50;42.40
37886;DHT22;23726;52.520;13.434;2023-02-11T18:27:49;21.50;42.40
37886;DHT22;23726;52.520;13.434;2023-02-11T18:30:19;21.50;42.40
37886;DHT22;23726;52.520;13.434;2023-02-11T18:32:47;21.50;42.40
37886;DHT22;23726;52.520;13.434;2023-02-11T18:35:17;21.50;42.40
37886;DHT22;23726;52.520;13.434;2023-02-11T18:37:44;21.50;42.30
37886;DHT22;23726;52.520;13.434;2023-02-11T18:40:11;21.50;42.40
37886;DHT22;23726;52.520;13.434;2023-02-11T18:42:37;21.50;42.30
37886;DHT22;23726;52.520;13.434;2023-02-11T18:45:05;21.50;42.30
37886;DHT22;23726;52.520;13.434;2023-02-11T18:47:35;21.50;42.30
37886;DHT22;23726;52.520;13.434;2023-02-11T18:50:05;21.50;42.30
37886;DHT22;23726;52.520;13.434;2023-02-11T18:52:32;21.50;42.40
37886;DHT22;23726;52.520;13.434;2023-02-11T18:54:58;21.50;42.30
37886;DHT22;23726;52.520;13.434;2023-02-11T19:00:47;21.50;42.20
37886;DHT22;23726;52.520;13.434;2023-02-11T19:03:13;21.50;42.40
37886;DHT22;23726;52.520;13.434;2023-02-11T19:05:46;21.50;43.40
37886;DHT22;23726;52.520;13.434;2023-02-11T19:17:58;21.30;44.20
37886;DHT22;23726;52.520;13.434;2023-02-11T19:20:24;21.20;44.40
37886;DHT22;23726;52.520;13.434;2023-02-11T19:22:51;21.20;44.40
37886;DHT22;23726;52.520;13.434;2023-02-11T19:25:18;21.20;44.50
37886;DHT22;23726;52.520;13.434;2023-02-11T19:27:43;21.30;44.50
37886;DHT22;23726;52.520;13.434;2023-02-11T19:30:09;21.30;44.50